Time;durP1;ratioP1;P1;durP2;ratioP2;P2;SDS_P1;SDS_P2;PMS_P1;PMS_P2;Temp;Humidity;BMP_temperature;BMP_pressure;BME280_temperature;BME280_humidity;BME280_pressure;Samples;Min_cycle;Max_cycle;Signal;HPM_P1;HPM_P2
2023/09/12 00:02:15;;;;;;;18.85;9.48;;;20.20;99.90;;;;;;5003047;28;20266;-73
2023/09/12 00:04:43;;;;;;;16.98;9.07;;;20.20;99.90;;;;;;5002800;28;20207;-73
2023/09/12 00:07:11;;;;;;;17.20;8.73;;;20.20;99.90;;;;;;5006602;28;20223;-73
2023/09/12 00:09:39;;;;;;;12.48;8.40;;;20.10;99.90;;;;;;4998144;28;20211;-73
2023/09/12 00:12:07;;;;;;;19.00;9.68;;;20.10;99.90;;;;;;5006720;28;20281;-73
2023/09/12 00:14:36;;;;;;;20.77;8.93;;;20.10;99.90;;;;;;5014477;28;20221;-73
2023/09/12 00:17:05;;;;;;;21.10;9.48;;;20.10;99.90;;;;;;5010595;28;20239;-73
2023/09/12 00:19:33;;;;;;;15.65;8.93;;;20.10;99.90;;;;;;5002587;28;20203;-73
2023/09/12 00:22:01;;;;;;;16.55;9.00;;;20.00;99.90;;;;;;5010803;28;20736;-73
2023/09/12 00:24:29;;;;;;;18.42;8.65;;;20.10;99.90;;;;;;5002151;28;20223;-73
2023/09/12 00:26:57;;;;;;;21.83;9.55;;;20.00;99.90;;;;;;5012565;28;20210;-73
2023/09/12 00:29:24;;;;;;;18.98;9.02;;;20.00;99.90;;;;;;5005590;28;20664;-74
2023/09/12 00:31:52;;;;;;;18.85;8.68;;;19.90;99.90;;;;;;4997707;28;20238;-73
2023/09/12 00:34:22;;;;;;;20.27;9.05;;;20.00;99.90;;;;;;5005733;28;20306;-73
2023/09/12 00:36:49;;;;;;;19.42;9.68;;;19.90;99.90;;;;;;5005316;28;20211;-73
2023/09/12 00:39:17;;;;;;;22.55;9.93;;;20.00;99.90;;;;;;5005720;28;20203;-73
2023/09/12 00:41:45;;;;;;;21.25;9.18;;;19.90;99.90;;;;;;5013483;28;20215;-73
2023/09/12 00:44:13;;;;;;;13.82;8.18;;;19.90;99.90;;;;;;5006047;28;20321;-73
2023/09/12 00:46:41;;;;;;;19.45;9.40;;;19.80;99.90;;;;;;5013538;28;20357;-73
2023/09/12 00:49:09;;;;;;;20.00;9.25;;;19.80;99.90;;;;;;5001946;28;20255;-73
2023/09/12 00:51:38;;;;;;;21.30;9.45;;;19.80;99.90;;;;;;4994215;28;20666;-73
2023/09/12 00:54:06;;;;;;;15.27;9.63;;;19.70;99.90;;;;;;5001750;28;20246;-73
2023/09/12 00:56:34;;;;;;;25.08;9.00;;;19.80;99.90;;;;;;5008435;28;20206;-73
2023/09/12 00:59:02;;;;;;;17.95;9.25;;;19.70;99.90;;;;;;5010715;28;20642;-73
2023/09/12 01:01:30;;;;;;;16.05;9.75;;;19.70;99.90;;;;;;5008220;28;20648;-73
2023/09/12 01:03:58;;;;;;;20.40;9.75;;;19.70;99.90;;;;;;5011036;28;20992;-73
2023/09/12 01:06:27;;;;;;;21.05;9.77;;;19.60;99.90;;;;;;5007353;28;20262;-73
2023/09/12 01:08:56;;;;;;;17.73;8.77;;;19.60;99.90;;;;;;5012973;28;20234;-73
2023/09/12 01:11:24;;;;;;;17.83;9.23;;;19.60;99.90;;;;;;5005286;28;20237;-73
2023/09/12 01:13:52;;;;;;;17.58;8.70;;;19.60;99.90;;;;;;4995690;28;20346;-73
2023/09/12 01:16:20;;;;;;;15.88;9.05;;;19.50;99.90;;;;;;5005895;28;20253;-73
2023/09/12 01:18:48;;;;;;;13.93;8.23;;;19.40;99.90;;;;;;5013005;28;20213;-73
2023/09/12 01:21:40;;;;;;;17.83;7.65;;;19.30;99.90;;;;;;5008843;28;20203;-73
2023/09/12 01:24:38;;;;;;;15.82;8.23;;;19.30;99.90;;;;;;4960581;28;20234;-73
2023/09/12 01:27:24;;;;;;;14.80;8.25;;;19.20;99.90;;;;;;5009153;28;20207;-73
2023/09/12 01:29:54;;;;;;;18.02;8.60;;;19.20;99.90;;;;;;5000884;28;20321;-73
2023/09/12 01:32:22;;;;;;;19.48;8.40;;;19.20;99.90;;;;;;4999865;28;20246;-73
2023/09/12 01:34:50;;;;;;;16.83;8.20;;;19.20;99.90;;;;;;5009439;28;20242;-73
2023/09/12 01:37:18;;;;;;;16.88;8.00;;;19.20;99.90;;;;;;5005216;28;20234;-73
2023/09/12 01:39:46;;;;;;;19.60;8.00;;;19.10;99.90;;;;;;4996446;28;20203;-73
2023/09/12 01:42:15;;;;;;;15.95;8.88;;;19.10;99.90;;;;;;5004912;28;20238;-73
2023/09/12 01:44:45;;;;;;;15.50;9.02;;;19.10;99.90;;;;;;4994835;28;20238;-73
2023/09/12 01:47:13;;;;;;;13.88;8.45;;;19.10;99.90;;;;;;5004681;28;20203;-73
2023/09/12 01:49:44;;;;;;;15.15;9.32;;;19.10;99.90;;;;;;4996945;28;20297;-73
2023/09/12 01:52:12;;;;;;;17.25;9.40;;;19.00;99.90;;;;;;5004709;28;20559;-73
2023/09/12 01:54:40;;;;;;;21.98;9.75;;;19.10;99.90;;;;;;4996851;28;20652;-73
2023/09/12 01:57:08;;;;;;;17.30;8.77;;;19.00;99.90;;;;;;5003536;28;20225;-73
2023/09/12 01:59:36;;;;;;;13.35;7.85;;;19.00;99.90;;;;;;5012012;28;20202;-73
2023/09/12 02:02:06;;;;;;;14.07;9.10;;;19.00;99.90;;;;;;5002077;28;20242;-73
2023/09/12 02:04:34;;;;;;;12.68;7.80;;;18.90;99.90;;;;;;4992479;28;20270;-73
2023/09/12 02:07:02;;;;;;;18.70;8.65;;;18.90;99.90;;;;;;5000648;28;20203;-73
2023/09/12 02:09:30;;;;;;;20.80;9.48;;;18.90;99.90;;;;;;5000033;28;20309;-73
2023/09/12 02:11:58;;;;;;;15.57;9.02;;;18.90;99.90;;;;;;5002549;28;20215;-73
2023/09/12 02:14:26;;;;;;;15.93;8.55;;;18.90;99.90;;;;;;5002121;28;20227;-73
2023/09/12 02:16:54;;;;;;;21.33;8.70;;;18.90;99.90;;;;;;5011204;28;20289;-73
2023/09/12 02:19:23;;;;;;;16.88;9.02;;;18.90;99.90;;;;;;4998086;28;20200;-73
2023/09/12 02:21:51;;;;;;;13.73;9.50;;;18.90;99.90;;;;;;5000472;28;20238;-73
2023/09/12 02:24:21;;;;;;;22.13;9.50;;;18.90;99.90;;;;;;5000478;28;20262;-73
2023/09/12 02:26:49;;;;;;;17.70;9.52;;;18.80;99.90;;;;;;5000084;28;20207;-73
2023/09/12 02:29:17;;;;;;;19.02;9.77;;;18.90;99.90;;;;;;5004099;28;20321;-74
2023/09/12 02:31:44;;;;;;;21.90;9.93;;;18.80;99.90;;;;;;5012105;28;20238;-74
2023/09/12 02:34:12;;;;;;;25.50;10.52;;;18.90;99.90;;;;;;5000375;28;20227;-74
2023/09/12 02:36:42;;;;;;;17.55;9.80;;;18.80;99.90;;;;;;5000140;28;20199;-73
2023/09/12 02:39:10;;;;;;;17.23;9.80;;;18.90;99.90;;;;;;5000005;28;20210;-73
2023/09/12 02:41:38;;;;;;;16.00;9.13;;;18.90;99.90;;;;;;4998628;28;20660;-74
2023/09/12 02:44:06;;;;;;;17.75;9.52;;;18.80;99.90;;;;;;4993230;28;20270;-74
2023/09/12 02:46:35;;;;;;;21.23;9.63;;;18.90;99.90;;;;;;5000098;28;20239;-74
2023/09/12 02:49:03;;;;;;;23.75;10.35;;;18.90;99.90;;;;;;5001796;28;20223;-74
2023/09/12 02:51:31;;;;;;;17.98;10.38;;;18.90;99.90;;;;;;4998016;28;20231;-74
2023/09/12 02:54:00;;;;;;;19.13;9.82;;;18.90;99.90;;;;;;4999901;28;20231;-74
2023/09/12 02:56:28;;;;;;;21.90;10.02;;;18.80;99.90;;;;;;5000009;28;20227;-73
2023/09/12 02:58:56;;;;;;;18.60;9.80;;;18.80;99.90;;;;;;5000000;28;20673;-74
2023/09/12 03:01:26;;;;;;;26.67;9.75;;;18.90;99.90;;;;;;5000206;28;20294;-74
2023/09/12 03:03:54;;;;;;;18.40;10.20;;;18.90;99.90;;;;;;5000173;28;20697;-73
2023/09/12 03:06:22;;;;;;;20.15;10.23;;;18.90;99.90;;;;;;4999361;28;20687;-74
2023/09/12 03:08:50;;;;;;;22.73;10.27;;;18.90;99.90;;;;;;4999962;28;20223;-74
2023/09/12 03:11:19;;;;;;;17.98;10.15;;;18.90;99.90;;;;;;4995670;28;20234;-74
2023/09/12 03:13:47;;;;;;;18.67;9.88;;;18.90;99.90;;;;;;4995629;28;20227;-74
2023/09/12 03:16:15;;;;;;;19.95;10.18;;;18.90;99.90;;;;;;4999652;28;20302;-74
2023/09/12 03:18:43;;;;;;;20.38;9.95;;;18.90;99.90;;;;;;5006641;28;20689;-73
2023/09/12 03:21:12;;;;;;;19.65;9.35;;;18.90;99.90;;;;;;5008861;28;20211;-73
2023/09/12 03:23:40;;;;;;;14.60;9.55;;;18.90;99.90;;;;;;5006213;28;20594;-74
2023/09/12 03:26:08;;;;;;;22.27;9.52;;;18.90;99.90;;;;;;5009059;28;20214;-73
2023/09/12 03:28:37;;;;;;;24.73;10.00;;;18.90;99.90;;;;;;5005767;28;20289;-74
2023/09/12 03:31:07;;;;;;;28.23;10.38;;;18.80;99.90;;;;;;5009380;28;20274;-74
2023/09/12 03:33:36;;;;;;;17.15;9.93;;;18.90;99.90;;;;;;5005782;28;20269;-74
2023/09/12 03:36:05;;;;;;;14.13;9.85;;;18.90;99.90;;;;;;5011221;28;20246;-73
2023/09/12 03:38:33;;;;;;;17.20;9.77;;;18.80;99.90;;;;;;5003229;28;20203;-74
2023/09/12 03:41:01;;;;;;;19.65;10.52;;;18.80;99.90;;;;;;4993937;28;20270;-74
2023/09/12 03:43:29;;;;;;;22.05;10.90;;;18.80;99.90;;;;;;5004469;28;20257;-74
2023/09/12 03:45:58;;;;;;;17.77;9.52;;;18.80;99.90;;;;;;5002979;28;20234;-73
2023/09/12 03:48:26;;;;;;;16.42;9.50;;;18.90;99.90;;;;;;5002879;28;20661;-74
2023/09/12 03:50:54;;;;;;;18.55;10.15;;;18.90;99.90;;;;;;5003083;28;20321;-74
2023/09/12 03:53:22;;;;;;;19.30;10.07;;;18.90;99.90;;;;;;5014090;28;20222;-73
2023/09/12 03:55:50;;;;;;;22.77;10.57;;;18.90;99.90;;;;;;5006032;28;20238;-74
2023/09/12 03:58:18;;;;;;;23.10;10.23;;;18.90;99.90;;;;;;5014591;28;20210;-74
2023/09/12 04:00:46;;;;;;;21.15;9.10;;;18.90;99.90;;;;;;5014724;28;20230;-74
2023/09/12 04:03:16;;;;;;;16.83;9.10;;;18.90;99.90;;;;;;5011777;28;20233;-74
2023/09/12 04:05:44;;;;;;;15.70;9.77;;;18.90;99.90;;;;;;5009645;28;20207;-73
2023/09/12 04:08:12;;;;;;;18.42;9.48;;;18.90;99.90;;;;;;5007319;28;20219;-73
2023/09/12 04:10:40;;;;;;;22.85;10.00;;;18.80;99.90;;;;;;4995009;28;20277;-74
2023/09/12 04:13:08;;;;;;;20.52;9.95;;;18.80;99.90;;;;;;5004413;28;20709;-74
2023/09/12 04:15:36;;;;;;;18.45;10.18;;;18.80;99.90;;;;;;4994371;28;20673;-73
2023/09/12 04:18:04;;;;;;;18.70;9.77;;;18.80;99.90;;;;;;4994689;28;20231;-74
2023/09/12 04:20:34;;;;;;;20.40;10.40;;;18.80;99.90;;;;;;4994630;28;20258;-74
2023/09/12 04:23:02;;;;;;;18.70;10.15;;;18.80;99.90;;;;;;5010760;28;20304;-73
2023/09/12 04:25:30;;;;;;;15.63;9.65;;;18.70;99.90;;;;;;5006988;28;20516;-73
2023/09/12 04:27:58;;;;;;;16.65;9.38;;;18.80;99.90;;;;;;5009111;28;20211;-67
2023/09/12 04:30:26;;;;;;;17.50;8.05;;;18.80;99.90;;;;;;5001693;28;20313;-66
2023/09/12 04:32:54;;;;;;;18.88;9.63;;;18.80;99.90;;;;;;5007341;28;20222;-74
2023/09/12 04:35:22;;;;;;;16.85;9.30;;;18.90;99.90;;;;;;5009834;28;20214;-74
2023/09/12 04:37:51;;;;;;;20.60;8.50;;;18.90;99.90;;;;;;5009512;28;20555;-74
2023/09/12 04:40:19;;;;;;;18.10;9.32;;;18.90;99.90;;;;;;5012456;28;20195;-74
2023/09/12 04:42:47;;;;;;;18.08;9.25;;;18.90;99.90;;;;;;5007439;28;20263;-74
2023/09/12 04:45:15;;;;;;;18.33;9.25;;;18.90;99.90;;;;;;5003040;28;20266;-74
2023/09/12 04:47:43;;;;;;;22.17;9.95;;;18.90;99.90;;;;;;4994036;28;20207;-74
2023/09/12 04:50:12;;;;;;;16.60;10.55;;;18.80;99.90;;;;;;5001970;28;20321;-74
2023/09/12 04:52:40;;;;;;;16.88;9.85;;;18.80;99.90;;;;;;5007936;28;20262;-74
2023/09/12 04:55:09;;;;;;;17.00;9.98;;;18.80;99.90;;;;;;5004219;28;20227;-74
2023/09/12 04:57:37;;;;;;;15.85;9.65;;;18.80;99.90;;;;;;5002168;28;20251;-74
2023/09/12 05:00:11;;;;;;;22.40;10.70;;;18.90;99.90;;;;;;5003583;28;20206;-74
2023/09/12 05:02:39;;;;;;;22.38;10.77;;;18.90;99.90;;;;;;5009396;28;20230;-75
2023/09/12 05:05:08;;;;;;;19.88;10.60;;;18.90;99.90;;;;;;4996850;28;20230;-74
2023/09/12 05:07:35;;;;;;;19.17;10.38;;;18.90;99.90;;;;;;5000116;28;20239;-74
2023/09/12 05:10:04;;;;;;;14.90;10.10;;;18.90;99.90;;;;;;5001508;28;20780;-74
2023/09/12 05:12:34;;;;;;;18.02;10.55;;;18.90;99.90;;;;;;5002944;28;20230;-74
2023/09/12 05:15:02;;;;;;;20.65;10.90;;;18.90;99.90;;;;;;5004906;28;20624;-74
2023/09/12 05:17:30;;;;;;;22.13;10.93;;;18.90;99.90;;;;;;5010743;28;20211;-74
2023/09/12 05:19:58;;;;;;;21.38;10.80;;;18.90;99.90;;;;;;5011500;28;20207;-74
2023/09/12 05:22:25;;;;;;;21.38;10.63;;;18.90;99.90;;;;;;5000020;28;20298;-74
2023/09/12 05:24:53;;;;;;;23.15;11.43;;;18.90;99.90;;;;;;4993491;28;20207;-74
2023/09/12 05:27:21;;;;;;;24.08;11.05;;;18.90;99.90;;;;;;5004023;28;20634;-74
2023/09/12 05:29:50;;;;;;;20.23;10.20;;;19.00;99.90;;;;;;5006435;28;20210;-74
2023/09/12 05:32:18;;;;;;;16.25;10.77;;;19.00;99.90;;;;;;5011122;28;20644;-74
2023/09/12 05:34:49;;;;;;;18.80;10.27;;;19.00;99.90;;;;;;5004734;28;20207;-74
2023/09/12 05:37:17;;;;;;;24.35;9.85;;;19.00;99.90;;;;;;5012608;28;20305;-73
2023/09/12 05:39:45;;;;;;;24.45;9.80;;;19.00;99.90;;;;;;5013063;28;20257;-73
2023/09/12 05:42:14;;;;;;;21.88;10.05;;;19.00;99.90;;;;;;5010860;28;20206;-74
2023/09/12 05:44:44;;;;;;;20.23;9.65;;;19.10;99.90;;;;;;5001044;28;20222;-74
2023/09/12 05:47:13;;;;;;;17.73;9.73;;;19.10;99.90;;;;;;5037339;22;20257;-53
2023/09/12 05:49:41;;;;;;;25.20;10.60;;;19.10;99.90;;;;;;5012510;28;20757;-54
2023/09/12 05:52:08;;;;;;;21.38;10.27;;;19.10;99.90;;;;;;5012675;28;20665;-53
2023/09/12 05:54:37;;;;;;;25.08;10.77;;;19.10;99.90;;;;;;5012398;28;20253;-56
2023/09/12 05:57:05;;;;;;;23.48;10.32;;;19.20;99.90;;;;;;5017815;28;20211;-55
2023/09/12 05:59:36;;;;;;;19.98;9.93;;;19.20;99.90;;;;;;5012574;28;20207;-54
2023/09/12 06:02:05;;;;;;;15.95;9.57;;;19.20;99.90;;;;;;5020490;28;20653;-53
2023/09/12 06:04:36;;;;;;;15.88;9.43;;;19.20;99.90;;;;;;5018122;28;20309;-54
2023/09/12 06:07:04;;;;;;;18.23;9.75;;;19.20;99.90;;;;;;5022287;28;20289;-54
2023/09/12 06:09:32;;;;;;;16.95;10.30;;;19.20;99.90;;;;;;5012158;28;20207;-51
2023/09/12 06:12:00;;;;;;;14.18;9.20;;;19.20;99.90;;;;;;5021379;28;20222;-51
2023/09/12 06:14:28;;;;;;;14.75;8.75;;;19.20;99.90;;;;;;5023127;28;20253;-56
2023/09/12 06:16:56;;;;;;;17.40;8.95;;;19.20;99.90;;;;;;5024352;28;20659;-50
2023/09/12 06:19:24;;;;;;;18.10;9.10;;;19.10;99.90;;;;;;5012190;28;20261;-50
2023/09/12 06:21:55;;;;;;;14.13;9.18;;;19.10;99.90;;;;;;5022662;28;20213;-52
2023/09/12 06:24:23;;;;;;;20.08;8.85;;;19.10;99.90;;;;;;5020336;28;20254;-56
2023/09/12 06:26:51;;;;;;;18.90;9.70;;;19.00;99.90;;;;;;5018113;28;20211;-54
2023/09/12 06:29:19;;;;;;;19.23;9.45;;;19.00;99.90;;;;;;5019841;28;20298;-53
2023/09/12 06:31:47;;;;;;;17.65;9.20;;;19.00;99.90;;;;;;5022993;28;20313;-54
2023/09/12 06:34:15;;;;;;;21.42;9.07;;;19.00;99.90;;;;;;5015876;28;20225;-54
2023/09/12 06:36:44;;;;;;;20.98;9.23;;;19.00;99.90;;;;;;5030759;28;20308;-50
2023/09/12 06:39:14;;;;;;;16.58;9.80;;;19.00;99.90;;;;;;5029776;28;20216;-50
2023/09/12 06:41:42;;;;;;;18.17;9.82;;;19.10;99.90;;;;;;5012584;28;20211;-52
2023/09/12 06:44:10;;;;;;;24.17;10.15;;;19.20;99.90;;;;;;5028370;28;20258;-53
2023/09/12 06:46:38;;;;;;;19.23;9.55;;;19.20;99.90;;;;;;5030897;28;20213;-54
2023/09/12 06:49:06;;;;;;;16.63;8.30;;;19.30;99.90;;;;;;5030945;28;20210;-53
2023/09/12 06:51:34;;;;;;;18.92;8.70;;;19.40;99.90;;;;;;5030834;28;20279;-53
2023/09/12 06:54:05;;;;;;;15.68;8.65;;;19.60;99.90;;;;;;5031143;28;20234;-53
2023/09/12 06:56:37;;;;;;;23.35;9.30;;;19.70;99.90;;;;;;5029783;28;20289;-55
2023/09/12 06:59:06;;;;;;;27.33;9.57;;;19.70;99.90;;;;;;5030311;28;20321;-55
2023/09/12 07:01:34;;;;;;;17.13;8.75;;;19.80;99.90;;;;;;5030630;28;20202;-55
2023/09/12 07:04:03;;;;;;;27.40;9.10;;;19.80;99.90;;;;;;5013830;28;20676;-54
2023/09/12 07:06:32;;;;;;;22.75;8.75;;;19.90;99.90;;;;;;5010613;28;20209;-55
2023/09/12 07:09:00;;;;;;;21.95;9.00;;;19.90;99.90;;;;;;5010588;28;20214;-57
2023/09/12 07:11:28;;;;;;;27.45;9.82;;;20.00;99.90;;;;;;5011261;28;20716;-54
2023/09/12 07:13:58;;;;;;;24.42;9.40;;;20.10;99.90;;;;;;5011089;28;20234;-55
2023/09/12 07:16:26;;;;;;;17.70;9.00;;;20.20;99.90;;;;;;5010904;28;20211;-53
2023/09/12 07:18:54;;;;;;;14.55;8.57;;;20.30;99.90;;;;;;5011202;28;20210;-53
2023/09/12 07:21:21;;;;;;;24.42;8.75;;;20.50;99.90;;;;;;5011191;28;20206;-54
2023/09/12 07:23:49;;;;;;;22.27;8.05;;;20.60;99.90;;;;;;5011158;28;20254;-54
2023/09/12 07:26:17;;;;;;;21.42;8.13;;;20.70;99.90;;;;;;5010921;28;20290;-54
2023/09/12 07:28:45;;;;;;;16.67;7.78;;;20.80;99.90;;;;;;5014745;28;20226;-53
2023/09/12 07:31:15;;;;;;;18.95;7.63;;;20.90;99.90;;;;;;5014926;28;20218;-55
2023/09/12 07:33:43;;;;;;;18.77;8.27;;;21.00;99.90;;;;;;5015003;28;20285;-57
2023/09/12 07:36:12;;;;;;;12.40;7.50;;;21.10;99.90;;;;;;5014270;28;20763;-55
2023/09/12 07:38:41;;;;;;;24.40;8.38;;;21.10;99.90;;;;;;5023028;28;20669;-54
2023/09/12 07:41:10;;;;;;;19.25;6.95;;;21.20;99.90;;;;;;5014613;28;20238;-53
2023/09/12 07:43:37;;;;;;;21.85;8.60;;;21.20;99.90;;;;;;5014714;28;20755;-53
2023/09/12 07:46:05;;;;;;;25.02;9.15;;;21.30;99.90;;;;;;5014366;28;20246;-55
2023/09/12 07:48:35;;;;;;;17.80;8.38;;;21.40;99.90;;;;;;5014671;28;20203;-57
2023/09/12 07:51:03;;;;;;;24.25;7.90;;;21.40;99.90;;;;;;5017199;28;20207;-53
2023/09/12 07:53:31;;;;;;;20.08;7.70;;;21.50;99.90;;;;;;5022237;28;20315;-57
2023/09/12 07:56:00;;;;;;;19.02;7.55;;;21.60;99.90;;;;;;5014369;28;20210;-54
2023/09/12 07:58:28;;;;;;;25.83;7.75;;;21.70;99.90;;;;;;5013435;28;20302;-55
2023/09/12 08:00:56;;;;;;;13.43;7.65;;;21.80;99.90;;;;;;5014153;28;20234;-56
2023/09/12 08:03:24;;;;;;;14.95;7.90;;;21.90;99.90;;;;;;5014302;28;20222;-56
2023/09/12 08:05:57;;;;;;;14.40;7.03;;;22.00;99.90;;;;;;5013948;28;20238;-55
2023/09/12 08:08:25;;;;;;;24.13;7.95;;;22.10;99.90;;;;;;5014120;28;20214;-56
2023/09/12 08:10:53;;;;;;;23.95;7.32;;;22.10;99.90;;;;;;5014381;28;20273;-56
2023/09/12 08:13:21;;;;;;;13.05;6.82;;;22.20;99.90;;;;;;5014281;28;20254;-55
2023/09/12 08:15:49;;;;;;;17.42;7.05;;;22.30;99.90;;;;;;5014134;28;20831;-55
2023/09/12 08:18:17;;;;;;;20.00;7.32;;;22.40;99.90;;;;;;5014448;28;20269;-54
2023/09/12 08:20:45;;;;;;;20.05;8.13;;;22.40;99.90;;;;;;5014186;28;20569;-55
2023/09/12 08:23:14;;;;;;;14.45;6.80;;;22.50;99.90;;;;;;5014650;28;20254;-54
2023/09/12 08:25:42;;;;;;;16.35;7.95;;;22.60;99.90;;;;;;5014215;28;20215;-55
2023/09/12 08:28:10;;;;;;;22.65;7.13;;;22.70;99.90;;;;;;5014058;28;20563;-57
2023/09/12 08:30:38;;;;;;;19.42;7.70;;;22.80;99.90;;;;;;5014102;28;20306;-55
2023/09/12 08:33:06;;;;;;;22.90;7.65;;;22.90;99.90;;;;;;5014091;28;20227;-56
2023/09/12 08:35:34;;;;;;;19.48;7.00;;;23.00;99.90;;;;;;5013730;28;20660;-54
2023/09/12 08:38:03;;;;;;;17.73;7.90;;;23.10;99.90;;;;;;5013769;28;20653;-55
2023/09/12 08:40:35;;;;;;;19.45;8.00;;;23.30;99.90;;;;;;5013836;28;20729;-55
2023/09/12 08:43:04;;;;;;;17.88;7.18;;;23.40;99.90;;;;;;5014008;28;20230;-56
2023/09/12 08:45:32;;;;;;;22.25;7.82;;;23.40;99.90;;;;;;5013534;28;20209;-54
2023/09/12 08:48:01;;;;;;;21.67;8.25;;;23.50;99.90;;;;;;5013805;28;20203;-57
2023/09/12 08:50:32;;;;;;;18.30;8.52;;;23.70;99.90;;;;;;5013929;28;20294;-54
2023/09/12 08:53:00;;;;;;;19.92;7.97;;;23.80;99.90;;;;;;5013919;28;20231;-56
2023/09/12 08:55:36;;;;;;;17.02;7.50;;;24.00;99.90;;;;;;5013534;28;20208;-59
2023/09/12 08:58:05;;;;;;;20.13;7.53;;;24.10;99.90;;;;;;5013512;28;20669;-57
2023/09/12 09:00:33;;;;;;;19.50;7.82;;;24.30;99.90;;;;;;5013737;28;20199;-56
2023/09/12 09:03:02;;;;;;;18.05;8.13;;;24.40;99.90;;;;;;5013609;28;20231;-54
2023/09/12 09:05:31;;;;;;;24.10;8.18;;;24.40;99.90;;;;;;5013373;28;20215;-58
2023/09/12 09:07:59;;;;;;;22.70;7.70;;;24.60;99.90;;;;;;5013416;28;20214;-57
2023/09/12 09:10:32;;;;;;;20.65;7.85;;;24.80;99.90;;;;;;5013391;28;20264;-57
2023/09/12 09:13:18;;;;;;;21.73;7.63;;;25.00;99.90;;;;;;5013261;28;20241;-56
2023/09/12 09:15:47;;;;;;;17.40;7.90;;;25.20;99.90;;;;;;5013129;28;20207;-55
2023/09/12 09:18:15;;;;;;;23.05;7.68;;;25.30;99.90;;;;;;5013143;28;20213;-57
2023/09/12 09:20:45;;;;;;;23.73;8.60;;;25.50;99.90;;;;;;5013245;28;20218;-57
2023/09/12 09:23:13;;;;;;;24.92;8.55;;;25.70;99.90;;;;;;5013137;28;20229;-56
2023/09/12 09:25:42;;;;;;;16.98;8.20;;;25.80;99.90;;;;;;5013075;28;20242;-58
2023/09/12 09:28:18;;;;;;;19.17;8.35;;;25.90;99.90;;;;;;5013044;28;20667;-55
2023/09/12 09:30:47;;;;;;;28.55;9.45;;;26.00;99.90;;;;;;5013052;28;20690;-55
2023/09/12 09:33:15;;;;;;;24.38;8.75;;;26.10;99.90;;;;;;5012917;28;20231;-57
2023/09/12 09:35:44;;;;;;;31.67;9.05;;;26.30;99.90;;;;;;5012610;28;20302;-57
2023/09/12 09:38:16;;;;;;;23.25;9.13;;;26.40;99.90;;;;;;5013013;28;20238;-56
2023/09/12 09:40:44;;;;;;;22.67;9.27;;;26.60;99.90;;;;;;5012974;28;20206;-57
2023/09/12 09:43:13;;;;;;;21.13;8.88;;;26.70;99.90;;;;;;5017745;28;20262;-59
2023/09/12 09:45:46;;;;;;;18.27;8.32;;;26.90;99.90;;;;;;5022816;28;20260;-56
2023/09/12 09:48:19;;;;;;;19.73;8.13;;;27.20;99.90;;;;;;5032072;28;20209;-57
2023/09/12 09:50:47;;;;;;;17.40;7.57;;;27.50;99.90;;;;;;5031390;28;20344;-55
2023/09/12 09:53:14;;;;;;;22.27;8.95;;;27.80;99.90;;;;;;5032028;28;20230;-55
2023/09/12 09:55:43;;;;;;;31.23;10.05;;;28.00;99.90;;;;;;5031930;28;20206;-56
2023/09/12 09:58:16;;;;;;;20.10;9.05;;;28.20;99.90;;;;;;5025825;28;20238;-56
2023/09/12 10:00:47;;;;;;;25.73;8.88;;;28.40;99.90;;;;;;5027456;28;20233;-58
2023/09/12 10:03:15;;;;;;;25.35;9.10;;;28.60;99.90;;;;;;5025003;28;20275;-57
2023/09/12 10:05:44;;;;;;;31.75;9.25;;;28.90;99.90;;;;;;5014998;28;20352;-62
2023/09/12 10:08:16;;;;;;;25.75;9.30;;;29.00;99.90;;;;;;5025910;28;20198;-59
2023/09/12 10:10:44;;;;;;;26.90;9.57;;;29.20;99.90;;;;;;5023212;28;20216;-59
2023/09/12 10:13:13;;;;;;;15.93;8.38;;;29.30;99.90;;;;;;5014793;28;20237;-59
2023/09/12 10:15:41;;;;;;;19.63;7.88;;;29.50;99.90;;;;;;5011762;28;20199;-59
2023/09/12 10:18:10;;;;;;;16.23;7.57;;;29.70;99.90;;;;;;5010504;28;20723;-59
2023/09/12 10:20:45;;;;;;;26.35;8.05;;;29.90;99.90;;;;;;5012090;28;20242;-58
2023/09/12 10:23:17;;;;;;;20.23;8.00;;;30.20;99.90;;;;;;5012126;28;20309;-59
2023/09/12 10:25:45;;;;;;;22.98;8.57;;;30.50;99.90;;;;;;5011829;28;20261;-59
2023/09/12 10:28:14;;;;;;;21.40;9.10;;;30.80;99.90;;;;;;5012442;28;20214;-59
2023/09/12 10:30:42;;;;;;;19.15;9.18;;;31.00;99.90;;;;;;5012264;28;20222;-58
2023/09/12 10:33:11;;;;;;;21.20;8.20;;;31.20;99.90;;;;;;5011992;28;20321;-58
2023/09/12 10:35:39;;;;;;;21.58;8.20;;;31.00;99.90;;;;;;5011800;28;20683;-59
2023/09/12 10:38:08;;;;;;;16.98;8.57;;;31.00;99.90;;;;;;5011727;28;20210;-58
2023/09/12 10:40:36;;;;;;;20.75;8.20;;;31.30;99.90;;;;;;5027439;28;20260;-58
2023/09/12 10:43:10;;;;;;;22.52;8.02;;;31.60;99.90;;;;;;5030031;28;20260;-59
2023/09/12 10:45:38;;;;;;;23.52;8.38;;;31.50;99.90;;;;;;5031019;28;20665;-59
2023/09/12 10:48:06;;;;;;;24.35;9.05;;;31.30;99.90;;;;;;5019921;28;20206;-58
2023/09/12 10:50:35;;;;;;;15.30;7.57;;;30.80;99.90;;;;;;5019590;28;20203;-59
2023/09/12 10:53:12;;;;;;;14.13;8.38;;;30.30;99.90;;;;;;5029256;28;20261;-59
2023/09/12 10:55:40;;;;;;;16.40;8.00;;;30.00;99.90;;;;;;5019786;28;20556;-58
2023/09/12 10:58:10;;;;;;;23.50;7.97;;;29.70;99.90;;;;;;5016519;28;20310;-58
2023/09/12 11:00:39;;;;;;;20.17;7.55;;;29.50;99.90;;;;;;5017473;28;20201;-58
2023/09/12 11:03:38;;;;;;;18.73;8.32;;;29.40;99.90;;;;;;5029838;28;20297;-59
2023/09/12 11:06:20;;;;;;;13.55;7.60;;;29.60;99.90;;;;;;5024252;28;20216;-59
2023/09/12 11:09:10;;;;;;;19.45;8.63;;;29.70;99.90;;;;;;5026917;28;20209;-59
2023/09/12 11:11:38;;;;;;;16.98;9.20;;;29.80;99.90;;;;;;5036909;28;20271;-59
2023/09/12 11:14:06;;;;;;;22.48;8.82;;;30.20;99.90;;;;;;5037893;28;20234;-59
2023/09/12 11:16:35;;;;;;;13.88;7.97;;;30.60;99.90;;;;;;5037815;28;20644;-59
2023/09/12 11:19:16;;;;;;;19.00;8.43;;;31.10;99.90;;;;;;5029738;28;20208;-59
2023/09/12 11:21:46;;;;;;;18.95;7.95;;;31.40;99.90;;;;;;5026256;28;20225;-59
2023/09/12 11:24:15;;;;;;;19.63;9.48;;;31.40;99.90;;;;;;5018408;28;20586;-59
2023/09/12 11:26:58;;;;;;;15.52;8.52;;;31.20;99.90;;;;;;5017846;28;20717;-59
2023/09/12 11:29:30;;;;;;;16.85;8.63;;;31.10;99.90;;;;;;5018446;28;20202;-59
2023/09/12 11:31:59;;;;;;;21.23;8.45;;;30.90;99.90;;;;;;5024337;28;20292;-59
2023/09/12 11:34:28;;;;;;;17.02;9.05;;;30.60;99.90;;;;;;5029538;28;20716;-59
2023/09/12 11:36:59;;;;;;;17.02;8.40;;;30.50;99.90;;;;;;5025791;28;20238;-59
2023/09/12 11:39:29;;;;;;;14.52;8.48;;;30.50;99.90;;;;;;5020421;28;20652;-59
2023/09/12 11:41:58;;;;;;;21.35;8.98;;;31.10;99.90;;;;;;5023650;28;20209;-59
2023/09/12 11:44:26;;;;;;;18.40;9.27;;;31.40;99.90;;;;;;5036966;28;20253;-59
2023/09/12 11:46:54;;;;;;;18.20;9.30;;;31.70;99.90;;;;;;5037782;28;20224;-59
2023/09/12 11:49:22;;;;;;;16.08;8.80;;;31.60;99.90;;;;;;5038007;28;20213;-59
2023/09/12 11:51:50;;;;;;;15.02;8.88;;;31.50;99.90;;;;;;5030895;28;20789;-58
2023/09/12 11:54:21;;;;;;;26.15;9.40;;;31.50;99.90;;;;;;5028370;28;20229;-59
2023/09/12 11:56:49;;;;;;;20.27;8.75;;;31.60;99.90;;;;;;5028626;28;20229;-59
2023/09/12 11:59:18;;;;;;;17.05;8.65;;;32.20;99.90;;;;;;5037058;28;20643;-59
2023/09/12 12:01:47;;;;;;;19.48;9.10;;;32.80;99.90;;;;;;5022620;28;20234;-59
2023/09/12 12:04:15;;;;;;;19.40;9.52;;;33.20;99.90;;;;;;5025328;28;20229;-62
2023/09/12 12:06:43;;;;;;;16.67;9.05;;;33.40;99.90;;;;;;5037100;28;20205;-59
2023/09/12 12:09:12;;;;;;;22.80;9.43;;;33.50;99.90;;;;;;5037624;28;20217;-59
2023/09/12 12:11:42;;;;;;;20.40;9.07;;;33.90;99.90;;;;;;5035970;28;20293;-60
2023/09/12 12:14:13;;;;;;;25.27;8.55;;;34.20;99.90;;;;;;5033340;28;20265;-60
2023/09/12 12:16:41;;;;;;;17.52;9.15;;;34.60;99.90;;;;;;5033692;28;20210;-60
2023/09/12 12:19:11;;;;;;;19.52;8.43;;;34.90;99.90;;;;;;5029490;28;20634;-59
2023/09/12 12:21:40;;;;;;;18.50;8.20;;;35.20;99.90;;;;;;5031997;28;20727;-60
2023/09/12 12:24:08;;;;;;;22.77;8.43;;;35.50;99.90;;;;;;5034365;28;20222;-60
2023/09/12 12:26:36;;;;;;;15.63;8.43;;;35.60;99.90;;;;;;5024629;28;20206;-59
2023/09/12 12:29:06;;;;;;;15.82;8.45;;;35.60;99.90;;;;;;5033164;28;20202;-58
2023/09/12 12:31:33;;;;;;;20.27;8.52;;;35.60;99.90;;;;;;5034083;28;20285;-60
2023/09/12 12:34:03;;;;;;;23.08;8.68;;;35.40;99.90;;;;;;5027744;28;20223;-61
2023/09/12 12:36:50;;;;;;;17.42;8.90;;;35.20;99.90;;;;;;5032345;28;20236;-59
2023/09/12 12:39:25;;;;;;;17.92;8.90;;;35.20;99.90;;;;;;5033858;28;20197;-59
2023/09/12 12:41:53;;;;;;;19.70;8.93;;;35.30;99.90;;;;;;5027950;28;20614;-59
2023/09/12 12:44:23;;;;;;;22.80;8.13;;;35.40;99.90;;;;;;5029944;28;20750;-59
2023/09/12 12:46:51;;;;;;;14.55;8.23;;;35.50;99.90;;;;;;5033335;28;20647;-59